Evesham Township, New Jersey
Current Conditions -  °F | °C
As of 6:54 AM on Wednesday 28 Jan 2015 (Local Time) from KVAY Reporting Station
Clear Clear  
Wind Chill:   Ceiling: Unl
Heat Index: 18°   Visibility: 10mi
Dew Point: -2°   Wind: 9mph
Humidity: 41%   Direction: 310°NW
Pressure: 30.05"   Gusts: NA
Location:  39.8786°N, 74.8969°W
Report Text: KVAY 281154Z AUTO 31008KT 10SM CLR M08/M19 A3005 RMK AO2 SLP174 T10781189 11072 21083 53022
Loading
Personal Weather Stations






























Interactive Weather Map New forecast layout! Learn more

10-Day Weather Forecast

Advertisements
Track Severe Weather on mobile